Terminal Aerodrome Forecast
Issued by NWS St Louis, MO

Home | Current Version | Previous Version | Text Only | Print | Product List | Glossary On
Versions: 1 2 3 4 5 6 7 8 9 10 11 12 13 14 15 16 17 18 19 20 21 22 23 24 25 26 27 28 29 30
000
FTUS43 KLSX 140913 AAA
TAFSTL
TAF AMD
KSTL 140913Z 1409/1512 VRB04KT P6SM BKN060
     FM141400 15009KT P6SM OVC060
     FM142200 17012KT P6SM -SN OVC030
     FM150100 17007KT P6SM OVC035
     FM151000 24009KT 3SM -SN OVC025=

USA.gov is the U.S. government's official web portal to all federal, state and local government web resources and services.